sensor_id;sensor_type;location;lat;lon;timestamp;temperature;humidity
43541;DHT22;29549;40.386;-3.710;2023-07-28T00:08:09;27.60;32.00
43541;DHT22;29549;40.386;-3.710;2023-07-28T00:18:10;27.60;32.10
43541;DHT22;29549;40.386;-3.710;2023-07-28T00:28:10;27.60;32.60
43541;DHT22;29549;40.386;-3.710;2023-07-28T00:38:11;27.40;32.90
43541;DHT22;29549;40.386;-3.710;2023-07-28T00:48:13;27.40;33.30
43541;DHT22;29549;40.386;-3.710;2023-07-28T00:58:15;27.50;33.20
43541;DHT22;29549;40.386;-3.710;2023-07-28T01:08:42;27.40;33.20
43541;DHT22;29549;40.386;-3.710;2023-07-28T01:18:47;27.40;33.10
43541;DHT22;29549;40.386;-3.710;2023-07-28T01:28:48;27.20;33.00
43541;DHT22;29549;40.386;-3.710;2023-07-28T01:38:49;27.10;33.20
43541;DHT22;29549;40.386;-3.710;2023-07-28T01:48:50;26.90;33.60
43541;DHT22;29549;40.386;-3.710;2023-07-28T01:58:51;26.70;33.80
43541;DHT22;29549;40.386;-3.710;2023-07-28T02:08:51;26.60;34.10
43541;DHT22;29549;40.386;-3.710;2023-07-28T02:18:52;26.60;34.60
43541;DHT22;29549;40.386;-3.710;2023-07-28T02:28:53;26.80;34.50
43541;DHT22;29549;40.386;-3.710;2023-07-28T02:38:53;26.70;34.80
43541;DHT22;29549;40.386;-3.710;2023-07-28T02:48:54;26.60;35.00
43541;DHT22;29549;40.386;-3.710;2023-07-28T02:58:55;26.60;35.20
43541;DHT22;29549;40.386;-3.710;2023-07-28T03:08:58;26.40;35.60
43541;DHT22;29549;40.386;-3.710;2023-07-28T03:18:59;26.20;35.90
43541;DHT22;29549;40.386;-3.710;2023-07-28T03:29:00;26.10;35.90
43541;DHT22;29549;40.386;-3.710;2023-07-28T03:39:00;25.90;36.00
43541;DHT22;29549;40.386;-3.710;2023-07-28T03:49:01;25.70;36.40
43541;DHT22;29549;40.386;-3.710;2023-07-28T03:59:02;25.80;36.20
43541;DHT22;29549;40.386;-3.710;2023-07-28T04:09:03;25.60;36.60
43541;DHT22;29549;40.386;-3.710;2023-07-28T04:19:04;25.50;36.70
43541;DHT22;29549;40.386;-3.710;2023-07-28T04:29:04;25.30;37.40
43541;DHT22;29549;40.386;-3.710;2023-07-28T04:39:05;25.30;37.60
43541;DHT22;29549;40.386;-3.710;2023-07-28T04:49:06;25.10;37.80
43541;DHT22;29549;40.386;-3.710;2023-07-28T04:59:07;25.10;38.50
43541;DHT22;29549;40.386;-3.710;2023-07-28T05:09:07;25.00;38.80
43541;DHT22;29549;40.386;-3.710;2023-07-28T05:19:09;24.90;39.50
43541;DHT22;29549;40.386;-3.710;2023-07-28T05:29:10;24.80;39.80
43541;DHT22;29549;40.386;-3.710;2023-07-28T05:39:11;24.70;39.40
43541;DHT22;29549;40.386;-3.710;2023-07-28T05:49:12;24.70;39.40
43541;DHT22;29549;40.386;-3.710;2023-07-28T05:59:12;24.60;39.20
43541;DHT22;29549;40.386;-3.710;2023-07-28T06:09:13;24.50;39.60
43541;DHT22;29549;40.386;-3.710;2023-07-28T06:19:14;24.60;39.60
43541;DHT22;29549;40.386;-3.710;2023-07-28T06:29:17;24.60;39.00
43541;DHT22;29549;40.386;-3.710;2023-07-28T06:39:18;24.40;39.40
43541;DHT22;29549;40.386;-3.710;2023-07-28T06:49:19;24.40;39.70
43541;DHT22;29549;40.386;-3.710;2023-07-28T06:59:19;24.70;39.70
43541;DHT22;29549;40.386;-3.710;2023-07-28T07:09:20;25.50;38.50
43541;DHT22;29549;40.386;-3.710;2023-07-28T07:19:21;26.10;37.10
43541;DHT22;29549;40.386;-3.710;2023-07-28T07:29:22;26.90;37.20
43541;DHT22;29549;40.386;-3.710;2023-07-28T07:39:23;27.20;35.20
43541;DHT22;29549;40.386;-3.710;2023-07-28T07:49:23;27.60;34.80
43541;DHT22;29549;40.386;-3.710;2023-07-28T07:59:24;28.10;34.10
43541;DHT22;29549;40.386;-3.710;2023-07-28T08:09:28;28.20;33.90
43541;DHT22;29549;40.386;-3.710;2023-07-28T08:19:29;28.50;33.50
43541;DHT22;29549;40.386;-3.710;2023-07-28T08:29:29;28.60;33.70
43541;DHT22;29549;40.386;-3.710;2023-07-28T08:39:30;28.90;33.40
43541;DHT22;29549;40.386;-3.710;2023-07-28T08:49:32;29.10;33.50
43541;DHT22;29549;40.386;-3.710;2023-07-28T08:59:35;29.30;33.10
43541;DHT22;29549;40.386;-3.710;2023-07-28T09:09:37;29.50;33.10
43541;DHT22;29549;40.386;-3.710;2023-07-28T09:19:58;29.70;32.80
43541;DHT22;29549;40.386;-3.710;2023-07-28T09:29:58;30.00;31.80
43541;DHT22;29549;40.386;-3.710;2023-07-28T09:40:00;30.20;31.20
43541;DHT22;29549;40.386;-3.710;2023-07-28T09:50:06;30.60;30.70
43541;DHT22;29549;40.386;-3.710;2023-07-28T10:00:10;30.50;29.90
43541;DHT22;29549;40.386;-3.710;2023-07-28T10:10:13;30.70;29.10
43541;DHT22;29549;40.386;-3.710;2023-07-28T10:30:50;31.10;28.40
43541;DHT22;29549;40.386;-3.710;2023-07-28T10:40:51;31.10;28.40
43541;DHT22;29549;40.386;-3.710;2023-07-28T10:50:52;31.10;28.50
43541;DHT22;29549;40.386;-3.710;2023-07-28T11:00:53;31.50;26.80
43541;DHT22;29549;40.386;-3.710;2023-07-28T11:10:53;31.60;26.70
43541;DHT22;29549;40.386;-3.710;2023-07-28T11:20:54;31.70;26.00
43541;DHT22;29549;40.386;-3.710;2023-07-28T11:30:55;31.60;27.20
43541;DHT22;29549;40.386;-3.710;2023-07-28T11:40:56;31.60;26.90
43541;DHT22;29549;40.386;-3.710;2023-07-28T11:50:57;31.90;25.60
43541;DHT22;29549;40.386;-3.710;2023-07-28T12:00:58;31.60;25.90
43541;DHT22;29549;40.386;-3.710;2023-07-28T12:10:59;31.80;26.00
43541;DHT22;29549;40.386;-3.710;2023-07-28T12:20:59;32.00;26.00
43541;DHT22;29549;40.386;-3.710;2023-07-28T12:31:00;31.80;25.10
43541;DHT22;29549;40.386;-3.710;2023-07-28T12:41:02;32.10;24.80
43541;DHT22;29549;40.386;-3.710;2023-07-28T12:51:02;32.40;24.00
43541;DHT22;29549;40.386;-3.710;2023-07-28T13:01:03;32.70;23.70
43541;DHT22;29549;40.386;-3.710;2023-07-28T13:11:05;32.50;24.10
43541;DHT22;29549;40.386;-3.710;2023-07-28T13:21:06;32.60;23.00
43541;DHT22;29549;40.386;-3.710;2023-07-28T13:31:10;32.70;22.80
43541;DHT22;29549;40.386;-3.710;2023-07-28T13:41:11;32.80;22.70
43541;DHT22;29549;40.386;-3.710;2023-07-28T13:51:12;32.90;21.60
43541;DHT22;29549;40.386;-3.710;2023-07-28T14:01:13;33.10;21.80
43541;DHT22;29549;40.386;-3.710;2023-07-28T14:11:13;33.20;21.00
43541;DHT22;29549;40.386;-3.710;2023-07-28T14:21:14;33.20;21.00
43541;DHT22;29549;40.386;-3.710;2023-07-28T14:31:15;33.30;21.70
43541;DHT22;29549;40.386;-3.710;2023-07-28T14:41:16;33.20;20.80
43541;DHT22;29549;40.386;-3.710;2023-07-28T14:51:17;33.30;21.20
43541;DHT22;29549;40.386;-3.710;2023-07-28T15:01:18;33.50;21.10
43541;DHT22;29549;40.386;-3.710;2023-07-28T15:11:18;33.80;21.00
43541;DHT22;29549;40.386;-3.710;2023-07-28T15:21:19;33.60;20.80
43541;DHT22;29549;40.386;-3.710;2023-07-28T15:31:20;33.80;20.90
43541;DHT22;29549;40.386;-3.710;2023-07-28T15:41:21;33.60;20.70
43541;DHT22;29549;40.386;-3.710;2023-07-28T15:51:21;33.60;19.90
43541;DHT22;29549;40.386;-3.710;2023-07-28T16:01:22;33.60;20.00
43541;DHT22;29549;40.386;-3.710;2023-07-28T16:11:23;33.60;19.60
43541;DHT22;29549;40.386;-3.710;2023-07-28T16:21:24;33.70;19.40
43541;DHT22;29549;40.386;-3.710;2023-07-28T16:31:24;33.60;19.10
43541;DHT22;29549;40.386;-3.710;2023-07-28T16:41:25;33.60;18.60
43541;DHT22;29549;40.386;-3.710;2023-07-28T16:51:26;33.60;16.90
43541;DHT22;29549;40.386;-3.710;2023-07-28T17:01:27;33.60;17.80
43541;DHT22;29549;40.386;-3.710;2023-07-28T17:11:27;33.10;17.70
43541;DHT22;29549;40.386;-3.710;2023-07-28T17:21:28;32.90;18.20
43541;DHT22;29549;40.386;-3.710;2023-07-28T17:31:29;32.90;18.90
43541;DHT22;29549;40.386;-3.710;2023-07-28T17:41:29;32.80;18.70
43541;DHT22;29549;40.386;-3.710;2023-07-28T17:51:30;32.70;18.90
43541;DHT22;29549;40.386;-3.710;2023-07-28T18:01:31;32.60;19.50
43541;DHT22;29549;40.386;-3.710;2023-07-28T18:11:32;32.60;19.10
43541;DHT22;29549;40.386;-3.710;2023-07-28T18:21:32;32.30;20.00
43541;DHT22;29549;40.386;-3.710;2023-07-28T18:31:34;32.20;20.20
43541;DHT22;29549;40.386;-3.710;2023-07-28T18:41:34;32.10;20.30
43541;DHT22;29549;40.386;-3.710;2023-07-28T18:51:35;32.00;20.00
43541;DHT22;29549;40.386;-3.710;2023-07-28T19:01:36;32.10;18.90
43541;DHT22;29549;40.386;-3.710;2023-07-28T19:11:37;32.10;18.50
43541;DHT22;29549;40.386;-3.710;2023-07-28T19:21:37;32.00;18.50
43541;DHT22;29549;40.386;-3.710;2023-07-28T19:31:38;31.80;18.70
43541;DHT22;29549;40.386;-3.710;2023-07-28T19:41:39;31.60;19.50
43541;DHT22;29549;40.386;-3.710;2023-07-28T19:51:40;31.50;20.40
43541;DHT22;29549;40.386;-3.710;2023-07-28T20:01:41;31.30;21.00
43541;DHT22;29549;40.386;-3.710;2023-07-28T20:11:41;31.20;22.20
43541;DHT22;29549;40.386;-3.710;2023-07-28T20:21:42;31.00;22.80
43541;DHT22;29549;40.386;-3.710;2023-07-28T20:31:43;30.80;22.70
43541;DHT22;29549;40.386;-3.710;2023-07-28T20:41:44;30.70;22.20
43541;DHT22;29549;40.386;-3.710;2023-07-28T20:51:44;30.60;21.80
43541;DHT22;29549;40.386;-3.710;2023-07-28T21:01:45;30.40;21.90
43541;DHT22;29549;40.386;-3.710;2023-07-28T21:11:47;30.20;22.20
43541;DHT22;29549;40.386;-3.710;2023-07-28T21:21:48;30.10;22.80
43541;DHT22;29549;40.386;-3.710;2023-07-28T21:31:49;30.00;23.10
43541;DHT22;29549;40.386;-3.710;2023-07-28T21:41:52;29.90;23.70
43541;DHT22;29549;40.386;-3.710;2023-07-28T21:51:55;29.70;23.80
43541;DHT22;29549;40.386;-3.710;2023-07-28T22:01:56;29.80;23.70
43541;DHT22;29549;40.386;-3.710;2023-07-28T22:11:56;29.60;23.90
43541;DHT22;29549;40.386;-3.710;2023-07-28T22:21:57;29.60;24.20
43541;DHT22;29549;40.386;-3.710;2023-07-28T22:31:58;29.50;24.40
43541;DHT22;29549;40.386;-3.710;2023-07-28T22:41:59;29.30;24.70
43541;DHT22;29549;40.386;-3.710;2023-07-28T22:51:59;29.10;25.10
43541;DHT22;29549;40.386;-3.710;2023-07-28T23:02:00;28.80;25.60
43541;DHT22;29549;40.386;-3.710;2023-07-28T23:12:01;28.60;25.90
43541;DHT22;29549;40.386;-3.710;2023-07-28T23:22:02;28.50;26.20
43541;DHT22;29549;40.386;-3.710;2023-07-28T23:32:03;28.50;26.40
43541;DHT22;29549;40.386;-3.710;2023-07-28T23:42:04;28.50;26.40
43541;DHT22;29549;40.386;-3.710;2023-07-28T23:52:06;28.40;26.60
